Time;durP1;ratioP1;P1;durP2;ratioP2;P2;SDS_P1;SDS_P2;PMS_P1;PMS_P2;Temp;Humidity;BMP_temperature;BMP_pressure;BME280_temperature;BME280_humidity;BME280_pressure;Samples;Min_cycle;Max_cycle;Signal;HPM_P1;HPM_P2
2022/01/18 00:01:29;;;;;;;3.55;1.10;;;;;;;0.10;64.92;100768.69;4493740;31;35913;-77
2022/01/18 00:04:17;;;;;;;3.50;1.10;;;;;;;0.14;64.14;100780.66;4495535;31;34669;-76
2022/01/18 00:07:03;;;;;;;8.30;1.50;;;;;;;0.10;64.44;100779.47;4475986;31;35055;-77
2022/01/18 00:09:50;;;;;;;4.70;1.45;;;;;;;0.09;64.24;100783.19;4498454;31;35635;-76
2022/01/18 00:18:14;;;;;;;3.97;1.10;;;;;;;0.08;64.88;100803.09;4490822;31;35118;-77
2022/01/18 00:24:07;;;;;;;7.32;1.70;;;;;;;0.05;64.49;100800.81;4483232;31;36121;-76
2022/01/18 00:26:53;;;;;;;3.58;1.00;;;;;;;0.06;64.02;100805.16;4489972;31;34905;-76
2022/01/18 00:29:51;;;;;;;7.03;1.55;;;;;;;0.08;63.82;100813.88;4465251;31;34137;-76
2022/01/18 00:35:31;;;;;;;3.37;1.40;;;;;;;-0.08;64.89;100821.41;4493172;31;34971;-75
2022/01/18 00:38:30;;;;;;;6.70;1.25;;;;;;;-0.04;64.65;100821.78;4490052;31;34694;-76
2022/01/18 00:41:19;;;;;;;4.97;2.45;;;;;;;0.08;63.81;100847.03;4480943;31;34132;-77
2022/01/18 00:44:07;;;;;;;3.90;1.27;;;;;;;0.11;64.26;100840.37;4477724;31;34676;-77
2022/01/18 00:46:54;;;;;;;5.05;1.12;;;;;;;0.12;63.98;100833.97;4491694;31;34640;-77
2022/01/18 00:49:43;;;;;;;4.95;1.12;;;;;;;0.35;63.54;100841.56;4490452;31;34602;-77
2022/01/18 00:52:35;;;;;;;3.33;1.45;;;;;;;0.13;64.27;100852.62;4494044;31;34920;-77
2022/01/18 00:55:25;;;;;;;4.28;0.80;;;;;;;0.06;64.79;100857.22;4491426;31;34928;-75
2022/01/18 00:58:14;;;;;;;5.12;1.77;;;;;;;0.13;64.93;100865.28;4483475;31;34965;-78
2022/01/18 01:01:03;;;;;;;5.70;1.40;;;;;;;0.17;64.93;100853.00;4473900;31;34258;-75
2022/01/18 01:03:51;;;;;;;8.35;1.25;;;;;;;0.17;65.12;100858.41;4490200;31;34245;-76
2022/01/18 01:06:37;;;;;;;9.05;1.58;;;;;;;0.09;65.96;100870.25;4483181;31;34692;-77
2022/01/18 01:09:29;;;;;;;1.85;0.82;;;;;;;0.03;66.62;100881.03;4479570;31;34921;-76
2022/01/18 01:12:18;;;;;;;4.15;1.37;;;;;;;0.07;67.29;100883.12;4492203;31;34726;-77
2022/01/18 01:15:10;;;;;;;5.97;1.20;;;;;;;0.03;67.36;100886.44;4474388;31;35093;-78
2022/01/18 01:36:47;;;;;;;9.30;1.48;;;;;;;-0.23;70.25;100896.22;4483397;31;34655;-77
2022/01/18 01:45:27;;;;;;;5.80;1.23;;;;;;;-0.88;73.48;100917.56;4477765;31;35137;-75
2022/01/18 01:48:14;;;;;;;4.95;1.15;;;;;;;-0.82;73.51;100905.97;4477142;31;35481;-75
2022/01/18 01:51:05;;;;;;;5.62;1.20;;;;;;;-0.51;72.30;100913.44;4481369;31;34316;-76
2022/01/18 01:53:51;;;;;;;5.47;1.23;;;;;;;-0.74;72.84;100918.37;4498723;31;32965;-75
2022/01/18 01:56:38;;;;;;;6.53;1.02;;;;;;;-0.69;72.86;100915.91;4494953;31;35033;-75
2022/01/18 01:59:24;;;;;;;4.40;1.00;;;;;;;-0.48;72.06;100910.34;4478036;31;35404;-76
2022/01/18 02:02:19;;;;;;;3.33;1.25;;;;;;;-0.38;71.54;100912.59;4469137;31;34083;-76
2022/01/18 02:05:08;;;;;;;3.67;1.05;;;;;;;-0.47;71.71;100911.97;4485476;31;34693;-76
2022/01/18 02:07:54;;;;;;;4.28;1.60;;;;;;;-0.45;71.64;100917.16;4478693;31;34895;-76
2022/01/18 02:10:41;;;;;;;3.62;1.17;;;;;;;-0.51;71.45;100924.22;4497184;31;34690;-78
2022/01/18 02:13:28;;;;;;;4.55;0.93;;;;;;;-0.56;72.11;100942.84;4471888;31;34124;-76
2022/01/18 02:21:45;;;;;;;7.45;1.20;;;;;;;-0.32;71.04;100937.88;4477515;31;35480;-76
2022/01/18 02:22:26;;;;;;;6.50;1.45;;;;;;;-0.62;72.36;100932.91;4479249;31;34768;-76
2022/01/18 02:25:13;;;;;;;4.95;1.10;;;;;;;-0.72;72.83;100940.53;4489169;31;34473;-76
2022/01/18 02:27:59;;;;;;;6.10;1.20;;;;;;;-0.63;72.48;100936.59;4467090;31;34630;-76
2022/01/18 02:30:46;;;;;;;6.40;1.50;;;;;;;-0.67;72.62;100935.37;4483062;31;34998;-76
2022/01/18 02:33:32;;;;;;;5.60;1.42;;;;;;;-0.68;72.81;100933.72;4478012;31;35556;-78
2022/01/18 02:36:19;;;;;;;5.90;1.20;;;;;;;-0.53;72.38;100928.97;4492538;31;34177;-76
2022/01/18 02:39:06;;;;;;;8.43;1.55;;;;;;;-0.65;72.78;100938.69;4493547;31;35496;-76
2022/01/18 02:41:58;;;;;;;5.37;1.35;;;;;;;-0.70;72.99;100935.78;4493374;31;35992;-76
2022/01/18 02:44:44;;;;;;;8.05;1.15;;;;;;;-0.53;72.04;100926.28;4482328;31;34372;-77
2022/01/18 02:47:34;;;;;;;9.02;1.75;;;;;;;-0.68;72.37;100923.78;4475783;31;34111;-76
2022/01/18 02:50:21;;;;;;;8.00;1.62;;;;;;;-0.71;72.77;100928.75;4493173;31;34552;-75
2022/01/18 02:53:08;;;;;;;8.50;1.75;;;;;;;-0.81;73.39;100933.69;4478451;31;35943;-76
2022/01/18 02:55:56;;;;;;;6.65;1.35;;;;;;;-0.84;73.49;100940.31;4476567;31;34549;-76
2022/01/18 02:58:43;;;;;;;6.62;1.20;;;;;;;-0.83;73.49;100935.75;4478772;31;34302;-75
2022/01/18 03:04:41;;;;;;;6.30;1.42;;;;;;;-0.84;73.77;100956.47;4489798;31;35026;-76
2022/01/18 03:07:27;;;;;;;9.20;1.60;;;;;;;-0.93;73.90;100958.50;4491740;31;35497;-75
2022/01/18 03:10:15;;;;;;;5.20;1.30;;;;;;;-0.94;74.20;100959.56;4479656;31;34281;-77
2022/01/18 03:13:01;;;;;;;3.25;1.25;;;;;;;-0.73;73.62;100968.50;4476712;31;34621;-77
2022/01/18 03:15:49;;;;;;;3.30;1.00;;;;;;;-0.73;73.07;100982.78;4491648;31;36057;-76
2022/01/18 03:18:38;;;;;;;6.78;1.70;;;;;;;-0.81;73.41;100991.03;4474370;32;35654;-75
2022/01/18 03:21:24;;;;;;;4.22;1.12;;;;;;;-0.82;73.50;100993.94;4495469;31;34311;-77
2022/01/18 03:30:07;;;;;;;9.13;1.52;;;;;;;-0.72;73.67;101007.81;4485560;31;34534;-76
2022/01/18 03:32:54;;;;;;;9.50;2.58;;;;;;;-0.66;73.00;101015.09;4486308;31;34102;-75
2022/01/18 03:35:41;;;;;;;5.35;0.80;;;;;;;-0.60;72.78;101011.56;4495740;31;35588;-76
2022/01/18 03:38:30;;;;;;;6.05;1.12;;;;;;;-0.50;72.46;101027.34;4479538;31;35927;-76
2022/01/18 03:41:18;;;;;;;4.10;1.25;;;;;;;-0.52;72.54;101034.78;4477147;31;33647;-75
2022/01/18 03:44:05;;;;;;;4.72;1.75;;;;;;;-0.52;72.40;101041.00;4492983;31;35148;-76
2022/01/18 03:46:53;;;;;;;10.18;1.90;;;;;;;-0.62;72.62;101050.53;4488262;31;35528;-76
2022/01/18 03:49:40;;;;;;;5.35;1.02;;;;;;;-0.71;73.15;101049.88;4477877;31;34946;-77
2022/01/18 03:52:28;;;;;;;4.87;1.33;;;;;;;-0.48;72.29;101044.97;4495682;31;34575;-76
2022/01/18 03:55:17;;;;;;;7.15;1.33;;;;;;;-0.55;71.98;101044.09;4477852;31;34970;-76
2022/01/18 03:58:03;;;;;;;8.68;1.25;;;;;;;-0.58;72.65;101049.06;4471522;31;35570;-76
2022/01/18 04:00:50;;;;;;;6.70;1.60;;;;;;;-0.60;72.64;101053.81;4489968;31;35953;-76
2022/01/18 04:03:37;;;;;;;7.18;1.45;;;;;;;-0.62;73.20;101059.41;4492102;31;33632;-76
2022/01/18 04:06:23;;;;;;;7.22;1.58;;;;;;;-0.46;72.52;101056.38;4492234;31;35035;-75
2022/01/18 04:09:09;;;;;;;5.15;1.25;;;;;;;-0.73;73.13;101054.63;4490248;31;34698;-75
2022/01/18 04:11:56;;;;;;;4.28;0.93;;;;;;;-0.67;73.43;101064.56;4492103;31;35623;-75
2022/01/18 04:14:43;;;;;;;5.10;1.50;;;;;;;-0.46;72.59;101069.84;4501470;31;35650;-75
2022/01/18 04:29:21;;;;;;;6.20;1.50;;;;;;;-0.58;72.33;101084.91;4494297;31;34190;-77
2022/01/18 04:32:08;;;;;;;6.80;1.35;;;;;;;-0.74;72.80;101087.94;4487767;31;33575;-77
2022/01/18 04:34:54;;;;;;;6.12;0.90;;;;;;;-0.56;72.08;101082.00;4485653;32;35909;-77
2022/01/18 04:37:40;;;;;;;8.07;2.03;;;;;;;-0.55;72.08;101081.78;4493678;31;34719;-75
2022/01/18 04:40:30;;;;;;;8.07;2.00;;;;;;;-0.75;72.69;101088.97;4495502;31;34186;-78
2022/01/18 04:49:38;;;;;;;6.35;1.67;;;;;;;-0.95;74.32;101121.19;4486612;31;34628;-76
2022/01/18 04:52:26;;;;;;;3.85;0.85;;;;;;;-1.08;74.66;101118.41;4478705;31;35001;-76
2022/01/18 04:55:15;;;;;;;6.60;1.25;;;;;;;-1.37;76.29;101122.97;4492013;31;34619;-76
2022/01/18 04:58:04;;;;;;;7.60;1.73;;;;;;;-1.56;77.46;101124.50;4491898;31;35041;-76
2022/01/18 05:00:52;;;;;;;6.80;1.80;;;;;;;-1.63;77.84;101120.91;4485153;31;34578;-77
2022/01/18 05:03:41;;;;;;;14.38;2.15;;;;;;;-1.60;77.82;101129.41;4464847;31;35053;-76
2022/01/18 05:06:30;;;;;;;4.75;1.08;;;;;;;-1.63;78.26;101124.44;4494849;31;34674;-74
2022/01/18 05:09:16;;;;;;;7.43;1.52;;;;;;;-1.43;77.37;101129.13;4493895;31;34956;-76
2022/01/18 05:12:12;;;;;;;9.43;1.58;;;;;;;-1.34;76.91;101138.72;4494166;31;35653;-76
2022/01/18 05:14:59;;;;;;;4.12;1.27;;;;;;;-1.20;76.24;101134.25;4493666;31;34276;-76
2022/01/18 05:18:10;;;;;;;5.72;1.58;;;;;;;-0.96;75.53;101135.66;4490509;31;35631;-76
2022/01/18 05:23:56;;;;;;;9.23;1.30;;;;;;;-1.23;76.57;101124.72;4489715;31;35548;-76
2022/01/18 05:26:43;;;;;;;9.45;1.70;;;;;;;-1.07;76.34;101118.22;4474487;31;34141;-77
2022/01/18 05:29:30;;;;;;;8.20;1.73;;;;;;;-1.26;76.70;101125.13;4486494;31;35490;-76
2022/01/18 05:32:16;;;;;;;8.15;1.77;;;;;;;-1.17;76.21;101128.50;4484543;31;34919;-76
2022/01/18 05:35:03;;;;;;;7.43;1.50;;;;;;;-1.28;77.20;101129.03;4453055;32;34718;-76
2022/01/18 05:37:50;;;;;;;8.63;1.55;;;;;;;-1.33;77.36;101150.31;4464873;32;34588;-76
2022/01/18 05:40:37;;;;;;;7.43;1.90;;;;;;;-1.07;76.90;101157.75;4454371;32;35583;-75
2022/01/18 05:43:24;;;;;;;5.50;1.50;;;;;;;-1.27;77.43;101160.28;4454108;32;34588;-76
2022/01/18 05:46:11;;;;;;;8.80;2.33;;;;;;;-1.15;77.26;101172.16;4454377;32;35222;-76
2022/01/18 05:49:00;;;;;;;10.32;2.12;;;;;;;-1.34;78.37;101172.84;4454936;32;35052;-75
2022/01/18 05:51:48;;;;;;;6.28;1.85;;;;;;;-1.37;78.54;101180.31;4444848;32;34612;-76
2022/01/18 05:54:34;;;;;;;7.32;1.27;;;;;;;-1.36;78.29;101173.88;4447805;32;34923;-76
2022/01/18 05:57:20;;;;;;;6.82;1.42;;;;;;;-1.33;79.15;101178.03;4458663;32;34705;-75
2022/01/18 06:00:11;;;;;;;8.43;1.95;;;;;;;-1.46;79.28;101178.75;4453800;32;34118;-76
2022/01/18 06:08:55;;;;;;;5.60;1.30;;;;;;;-1.47;79.54;101182.47;4460442;32;34685;-76
2022/01/18 06:11:42;;;;;;;7.72;1.50;;;;;;;-1.54;80.05;101197.69;4461526;32;34109;-76
2022/01/18 06:14:28;;;;;;;5.95;1.50;;;;;;;-1.45;79.89;101187.62;4458962;32;34662;-76
2022/01/18 06:17:15;;;;;;;5.05;1.67;;;;;;;-1.27;79.26;101204.16;4447230;32;36027;-76
2022/01/18 06:20:02;;;;;;;8.65;2.42;;;;;;;-1.60;80.47;101201.16;4457714;32;35550;-75
2022/01/18 06:22:52;;;;;;;7.70;1.90;;;;;;;-1.65;80.94;101196.37;4441625;32;34118;-76
2022/01/18 06:25:38;;;;;;;6.87;1.70;;;;;;;-1.59;80.90;101192.09;4461195;32;34516;-75
2022/01/18 06:28:25;;;;;;;9.23;2.53;;;;;;;-1.48;80.66;101196.97;4463275;32;34974;-75
2022/01/18 06:31:12;;;;;;;9.63;1.80;;;;;;;-1.45;80.63;101201.94;4462240;32;35116;-76
2022/01/18 06:33:58;;;;;;;7.12;1.75;;;;;;;-1.61;81.25;101202.19;4480639;31;34211;-76
2022/01/18 06:36:45;;;;;;;9.32;1.85;;;;;;;-1.15;80.30;101204.44;4479216;31;34392;-76
2022/01/18 06:39:31;;;;;;;6.68;1.70;;;;;;;-1.38;81.22;101202.81;4482927;31;34911;-76
2022/01/18 06:42:18;;;;;;;9.10;1.58;;;;;;;-1.25;80.47;101201.25;4491507;31;34517;-75
2022/01/18 06:45:05;;;;;;;5.40;1.77;;;;;;;-1.44;81.30;101214.34;4476070;31;34720;-78
2022/01/18 06:47:51;;;;;;;7.18;1.70;;;;;;;-0.92;79.31;101217.66;4478593;31;35483;-78
2022/01/18 06:50:38;;;;;;;9.20;2.20;;;;;;;-1.00;79.41;101225.88;4493040;31;35020;-77
2022/01/18 06:53:27;;;;;;;7.72;1.80;;;;;;;-1.03;79.65;101231.62;4486396;31;34617;-77
2022/01/18 06:56:15;;;;;;;9.60;1.92;;;;;;;-1.18;80.08;101223.66;4490440;31;34206;-78
2022/01/18 06:59:01;;;;;;;9.90;2.22;;;;;;;-1.31;81.13;101232.47;4490744;31;34668;-77
2022/01/18 07:01:48;;;;;;;8.52;1.85;;;;;;;-1.11;80.72;101238.00;4487839;31;34941;-77
2022/01/18 07:04:34;;;;;;;4.15;1.50;;;;;;;-0.30;77.40;101245.56;4487266;31;35390;-76
2022/01/18 07:07:20;;;;;;;8.30;2.40;;;;;;;-0.39;77.31;101233.28;4490442;31;35301;-77
2022/01/18 07:10:07;;;;;;;9.07;1.85;;;;;;;-0.68;78.42;101235.22;4489945;31;34561;-76
2022/01/18 07:12:56;;;;;;;6.87;1.77;;;;;;;-1.02;79.93;101234.16;4475052;31;35801;-76
2022/01/18 07:15:42;;;;;;;6.47;1.80;;;;;;;-0.90;79.96;101234.44;4483460;31;33547;-78
2022/01/18 07:18:29;;;;;;;4.62;1.60;;;;;;;-0.82;79.92;101228.91;4492811;31;34231;-77
2022/01/18 07:21:15;;;;;;;7.32;1.70;;;;;;;-0.58;79.66;101224.91;4488311;31;34589;-78
2022/01/18 07:24:13;;;;;;;8.73;2.15;;;;;;;-0.78;80.14;101234.72;4484612;31;35003;-77
2022/01/18 07:27:00;;;;;;;11.15;1.90;;;;;;;-0.47;79.20;101236.97;4478359;31;34560;-78
2022/01/18 07:29:46;;;;;;;15.10;2.72;;;;;;;-0.77;80.08;101233.69;4490061;31;34161;-77
2022/01/18 07:32:32;;;;;;;12.43;2.33;;;;;;;-0.81;80.93;101235.12;4489361;31;35558;-76
2022/01/18 07:35:19;;;;;;;7.45;1.87;;;;;;;-0.74;80.58;101225.19;4483846;31;34956;-78
2022/01/18 07:38:05;;;;;;;7.35;2.15;;;;;;;-0.71;80.54;101219.44;4478905;31;34536;-77
2022/01/18 07:40:53;;;;;;;8.27;2.75;;;;;;;-0.57;80.17;101225.72;4467315;31;34131;-76
2022/01/18 07:43:40;;;;;;;9.88;2.37;;;;;;;-0.57;80.18;101233.78;4486040;31;34696;-76
2022/01/18 07:46:27;;;;;;;10.32;2.67;;;;;;;-0.54;79.71;101231.56;4482846;31;34612;-77
2022/01/18 07:49:13;;;;;;;9.82;2.28;;;;;;;-0.50;79.76;101234.69;4484757;31;34633;-77
2022/01/18 07:51:59;;;;;;;8.02;1.90;;;;;;;-0.13;78.47;101246.87;4484335;31;33822;-77
2022/01/18 07:54:46;;;;;;;8.63;2.37;;;;;;;0.03;77.94;101239.44;4487239;31;34314;-77
2022/01/18 07:57:33;;;;;;;11.48;2.28;;;;;;;-0.27;78.84;101253.22;4487969;31;34966;-78
2022/01/18 08:00:20;;;;;;;9.30;2.00;;;;;;;-0.26;78.63;101268.34;4476764;31;33381;-77
2022/01/18 08:03:06;;;;;;;10.23;2.22;;;;;;;-0.13;78.14;101273.81;4467359;31;34253;-76
2022/01/18 08:05:53;;;;;;;10.73;2.10;;;;;;;-0.05;78.03;101279.03;4477049;31;34700;-77
2022/01/18 08:08:40;;;;;;;8.05;2.08;;;;;;;0.20;77.65;101265.03;4487629;31;35645;-78
2022/01/18 08:11:26;;;;;;;5.62;1.75;;;;;;;0.14;77.19;101279.31;4489878;31;34749;-76
2022/01/18 08:14:13;;;;;;;11.65;3.00;;;;;;;0.39;76.30;101272.31;4484306;31;34198;-80
2022/01/18 08:17:04;;;;;;;12.80;3.58;;;;;;;0.36;76.24;101277.31;4477312;31;34533;-77
2022/01/18 08:19:51;;;;;;;18.92;3.53;;;;;;;0.29;77.05;101285.38;4479035;31;34578;-75
2022/01/18 08:22:37;;;;;;;14.45;4.40;;;;;;;0.66;75.80;101297.50;4474274;31;35393;-76
2022/01/18 08:25:23;;;;;;;10.02;3.47;;;;;;;0.36;76.34;101299.69;4495237;31;35149;-75
2022/01/18 08:28:10;;;;;;;13.02;3.22;;;;;;;0.50;76.36;101314.06;4478885;31;35906;-76
2022/01/18 08:30:56;;;;;;;9.25;3.35;;;;;;;0.57;75.71;101314.06;4478193;31;34964;-77
2022/01/18 08:33:43;;;;;;;8.20;2.40;;;;;;;0.51;75.73;101328.37;4491501;31;34859;-77
2022/01/18 08:36:29;;;;;;;11.90;3.37;;;;;;;0.39;75.58;101328.94;4491357;31;33771;-76
2022/01/18 08:39:15;;;;;;;11.23;2.20;;;;;;;0.51;75.47;101309.50;4485396;31;35538;-75
2022/01/18 08:42:02;;;;;;;15.13;2.92;;;;;;;0.62;74.97;101322.38;4474857;31;34754;-73
2022/01/18 08:44:50;;;;;;;7.97;1.95;;;;;;;0.42;75.75;101331.25;4482243;31;34727;-76
2022/01/18 08:47:37;;;;;;;10.32;2.78;;;;;;;0.63;74.69;101324.87;4467484;31;34112;-75
2022/01/18 08:50:23;;;;;;;9.43;2.35;;;;;;;0.66;75.31;101339.84;4476305;31;34635;-75
2022/01/18 08:53:10;;;;;;;11.48;2.58;;;;;;;0.56;75.14;101340.22;4494579;31;36025;-75
2022/01/18 08:55:56;;;;;;;11.38;2.83;;;;;;;0.72;74.73;101341.72;4479432;31;34916;-74
2022/01/18 08:58:43;;;;;;;8.13;2.10;;;;;;;0.75;74.08;101338.59;4476579;31;35325;-75
2022/01/18 09:01:29;;;;;;;12.65;2.40;;;;;;;0.96;73.70;101345.69;4475618;31;34073;-75
2022/01/18 09:04:16;;;;;;;11.40;3.37;;;;;;;1.07;73.16;101346.94;4486428;31;36005;-75
2022/01/18 09:07:07;;;;;;;12.45;2.40;;;;;;;0.98;72.58;101349.03;4481599;31;34569;-80
2022/01/18 09:10:03;;;;;;;8.43;2.28;;;;;;;0.92;73.36;101352.56;4492470;31;34849;-77
2022/01/18 09:12:49;;;;;;;13.07;2.50;;;;;;;1.16;72.62;101343.00;4477485;31;35518;-76
2022/01/18 09:15:38;;;;;;;7.05;1.75;;;;;;;0.96;72.13;101355.66;4488741;31;35113;-76
2022/01/18 09:18:24;;;;;;;11.45;3.25;;;;;;;1.14;71.96;101358.59;4488669;31;34220;-77
2022/01/18 09:21:11;;;;;;;8.52;2.87;;;;;;;1.38;71.92;101359.03;4490903;31;33810;-76
2022/01/18 09:23:56;;;;;;;9.85;3.00;;;;;;;1.02;71.76;101371.03;4487815;31;35234;-77
2022/01/18 09:26:43;;;;;;;13.32;2.47;;;;;;;1.06;72.04;101372.31;4489901;31;34390;-77
2022/01/18 09:29:30;;;;;;;10.90;3.42;;;;;;;1.23;70.90;101387.06;4469594;31;34188;-78
2022/01/18 09:32:24;;;;;;;8.77;2.35;;;;;;;1.19;71.45;101383.09;4496265;31;34208;-77
2022/01/18 09:35:11;;;;;;;11.00;2.67;;;;;;;1.54;70.01;101385.63;4467203;31;34692;-77
2022/01/18 09:37:58;;;;;;;11.73;2.50;;;;;;;1.63;70.21;101384.34;4474524;31;34968;-77
2022/01/18 09:40:46;;;;;;;13.98;2.95;;;;;;;1.43;70.04;101386.25;4469172;31;34491;-77
2022/01/18 09:43:34;;;;;;;13.25;2.85;;;;;;;1.33;70.37;101384.75;4479650;31;35077;-78
2022/01/18 09:46:23;;;;;;;8.55;2.20;;;;;;;1.59;69.70;101372.28;4487122;31;34727;-78
2022/01/18 09:49:10;;;;;;;10.02;2.20;;;;;;;1.50;69.79;101381.66;4476294;31;35953;-80
2022/01/18 09:51:56;;;;;;;11.85;2.70;;;;;;;2.22;67.03;101379.84;4486264;31;34861;-77
2022/01/18 09:54:45;;;;;;;9.20;2.75;;;;;;;1.75;68.25;101385.38;4486467;31;33379;-78
2022/01/18 09:57:31;;;;;;;10.40;2.62;;;;;;;1.82;68.58;101376.44;4488555;31;33471;-75
2022/01/18 10:00:19;;;;;;;8.27;2.20;;;;;;;1.62;68.30;101371.03;4473264;31;35016;-74
2022/01/18 10:03:09;;;;;;;11.45;2.53;;;;;;;1.81;67.72;101386.41;4484968;31;34721;-75
2022/01/18 10:05:56;;;;;;;11.85;2.12;;;;;;;1.72;67.54;101368.75;4476558;31;34180;-77
2022/01/18 10:08:47;;;;;;;8.50;2.40;;;;;;;1.84;67.27;101385.16;4487942;31;34690;-75
2022/01/18 10:11:33;;;;;;;8.90;2.42;;;;;;;2.00;67.02;101380.13;4485915;31;34799;-80
2022/01/18 10:14:20;;;;;;;5.80;1.95;;;;;;;1.90;66.63;101370.78;4485401;31;35092;-80
2022/01/18 10:17:07;;;;;;;8.82;2.10;;;;;;;1.63;66.84;101378.97;4473757;31;32883;-77
2022/01/18 10:20:16;;;;;;;5.47;1.98;;;;;;;1.86;66.72;101381.22;4474787;31;34722;-78
2022/01/18 10:23:02;;;;;;;5.50;1.80;;;;;;;1.83;66.98;101394.31;4492301;31;34972;-78
2022/01/18 10:25:50;;;;;;;7.57;1.87;;;;;;;1.71;66.37;101392.25;4494813;31;34277;-77
2022/01/18 10:28:37;;;;;;;5.50;1.87;;;;;;;2.00;65.96;101396.34;4479655;31;35047;-80
2022/01/18 10:32:18;;;;;;;13.00;2.50;;;;;;;1.83;66.14;101389.75;4475233;31;34760;-77
2022/01/18 10:35:04;;;;;;;5.72;1.65;;;;;;;2.03;65.95;101385.13;4478243;31;34898;-77
2022/01/18 10:37:49;;;;;;;7.07;1.77;;;;;;;2.03;65.98;101392.41;4481148;31;34657;-81
2022/01/18 10:40:36;;;;;;;6.03;2.03;;;;;;;2.10;65.92;101376.16;4476858;31;34240;-77
2022/01/18 10:43:27;;;;;;;6.65;1.42;;;;;;;2.31;65.20;101373.19;4483935;31;34677;-80
2022/01/18 10:46:15;;;;;;;8.45;2.40;;;;;;;2.34;65.01;101369.22;4479229;31;34972;-79
2022/01/18 10:49:03;;;;;;;8.38;2.10;;;;;;;2.15;64.13;101355.53;4482522;31;34622;-79
2022/01/18 10:51:56;;;;;;;13.68;2.83;;;;;;;2.03;64.32;101379.72;4464236;31;33930;-79
2022/01/18 10:54:44;;;;;;;6.00;2.28;;;;;;;2.24;63.90;101381.31;4479564;31;34659;-79
2022/01/18 10:57:33;;;;;;;9.13;1.90;;;;;;;2.13;63.98;101381.97;4492214;31;34967;-80
2022/01/18 11:00:25;;;;;;;12.65;2.60;;;;;;;2.07;63.94;101380.13;4480400;31;34592;-80
2022/01/18 11:03:14;;;;;;;6.95;2.20;;;;;;;1.91;64.82;101369.78;4484558;31;34208;-79
2022/01/18 11:06:15;;;;;;;12.68;2.62;;;;;;;2.28;63.37;101372.75;4497343;31;35295;-77
2022/01/18 11:09:15;;;;;;;8.43;2.12;;;;;;;2.31;63.04;101361.53;4478687;31;34950;-76
2022/01/18 11:12:02;;;;;;;11.35;2.08;;;;;;;2.19;63.09;101386.53;4482094;31;34593;-76
2022/01/18 11:15:02;;;;;;;6.22;1.65;;;;;;;2.45;62.41;101371.25;4490743;31;34109;-82
2022/01/18 11:17:55;;;;;;;8.65;2.45;;;;;;;2.67;62.31;101396.94;4497489;31;35606;-81
2022/01/18 11:20:45;;;;;;;9.80;2.90;;;;;;;2.20;63.51;101403.59;4482726;31;34998;-82
2022/01/18 11:23:37;;;;;;;7.93;2.25;;;;;;;2.64;62.45;101394.66;4482673;31;34664;-79
2022/01/18 11:26:24;;;;;;;8.40;2.15;;;;;;;2.22;62.75;101399.63;4480776;31;34180;-80
2022/01/18 11:29:13;;;;;;;7.10;2.25;;;;;;;2.37;62.59;101401.25;4478154;31;34493;-79
2022/01/18 11:31:59;;;;;;;8.45;1.83;;;;;;;2.24;63.60;101396.72;4485635;31;34970;-79
2022/01/18 11:35:10;;;;;;;7.03;2.20;;;;;;;2.53;62.48;101395.34;4484670;31;34664;-78
2022/01/18 11:38:05;;;;;;;6.78;1.85;;;;;;;2.29;62.12;101390.66;4478006;31;34819;-79
2022/01/18 11:40:55;;;;;;;13.05;2.83;;;;;;;2.29;61.95;101393.37;4490193;31;34801;-80
2022/01/18 11:43:44;;;;;;;16.10;2.47;;;;;;;2.36;62.46;101399.56;4489270;31;34700;-80
2022/01/18 11:46:31;;;;;;;6.82;1.80;;;;;;;2.69;62.48;101413.81;4485887;31;34494;-78
2022/01/18 11:49:27;;;;;;;6.50;1.80;;;;;;;2.28;62.43;101413.34;4491909;31;35214;-78
2022/01/18 11:52:36;;;;;;;11.75;2.80;;;;;;;2.52;62.22;101426.16;4481566;31;34130;-77
2022/01/18 11:55:38;;;;;;;8.85;2.30;;;;;;;2.65;61.58;101426.13;4467177;31;35046;-75
2022/01/18 11:58:26;;;;;;;5.78;2.00;;;;;;;2.19;62.54;101412.75;4484403;31;35250;-78
2022/01/18 12:01:13;;;;;;;10.02;2.85;;;;;;;2.44;62.54;101413.69;4467624;31;34088;-84
2022/01/18 12:03:59;;;;;;;6.65;2.12;;;;;;;2.46;61.89;101410.78;4486848;31;34532;-84
2022/01/18 12:06:46;;;;;;;9.63;2.55;;;;;;;2.17;62.50;101396.75;4477023;31;35949;-81
2022/01/18 12:09:47;;;;;;;14.05;2.53;;;;;;;2.31;62.08;101408.34;4483377;31;35089;-80
2022/01/18 12:12:54;;;;;;;9.13;2.15;;;;;;;2.37;61.40;101385.03;4476939;31;34209;-81
2022/01/18 12:15:41;;;;;;;8.40;2.50;;;;;;;2.40;61.22;101395.41;4480288;31;34253;-78
2022/01/18 12:18:29;;;;;;;8.02;2.62;;;;;;;2.40;61.68;101390.00;4479679;31;35553;-78
2022/01/18 12:21:24;;;;;;;10.88;2.00;;;;;;;2.47;61.20;101396.22;4478847;31;35488;-77
2022/01/18 12:24:21;;;;;;;9.45;2.30;;;;;;;2.50;61.64;101389.53;4488496;31;35161;-76
2022/01/18 12:27:31;;;;;;;8.02;2.03;;;;;;;2.64;60.77;101385.72;4465332;31;35473;-79
2022/01/18 12:30:52;;;;;;;7.65;2.30;;;;;;;2.37;61.64;101406.66;4486149;31;35045;-80
2022/01/18 12:33:43;;;;;;;7.32;1.40;;;;;;;2.59;61.22;101416.16;4486553;31;35467;-79
2022/01/18 12:36:31;;;;;;;7.45;2.62;;;;;;;2.53;61.59;101406.16;4478443;31;33838;-80
2022/01/18 12:39:18;;;;;;;9.05;2.60;;;;;;;2.83;60.64;101413.75;4488415;31;35534;-79
2022/01/18 12:42:20;;;;;;;9.52;2.30;;;;;;;2.25;62.57;101409.22;4471836;31;34920;-78
2022/01/18 12:45:09;;;;;;;9.30;3.08;;;;;;;2.61;61.64;101408.62;4475884;31;35612;-77
2022/01/18 12:47:58;;;;;;;9.90;2.50;;;;;;;2.52;61.67;101420.75;4492379;31;35275;-80
2022/01/18 12:50:52;;;;;;;9.25;2.53;;;;;;;2.56;61.95;101430.13;4491764;31;35459;-76
2022/01/18 12:53:39;;;;;;;10.75;2.95;;;;;;;2.42;62.55;101431.19;4478545;31;34892;-79
2022/01/18 12:56:25;;;;;;;8.07;2.75;;;;;;;2.54;62.79;101423.25;4480378;31;35501;-77
2022/01/18 12:59:12;;;;;;;7.07;2.37;;;;;;;2.60;62.12;101404.28;4480847;31;34068;-78
2022/01/18 13:01:58;;;;;;;12.07;3.20;;;;;;;2.41;62.52;101424.13;4481618;31;34697;-78
2022/01/18 13:04:58;;;;;;;14.68;3.37;;;;;;;2.77;62.05;101428.16;4487014;31;34575;-77
2022/01/18 13:07:51;;;;;;;13.48;2.90;;;;;;;2.87;61.33;101417.69;4476650;31;34606;-82
2022/01/18 13:10:44;;;;;;;8.43;2.28;;;;;;;2.58;62.06;101402.84;4483506;31;34224;-78
2022/01/18 13:13:33;;;;;;;9.10;2.33;;;;;;;2.38;62.84;101405.63;4478671;31;34546;-79
2022/01/18 13:25:21;;;;;;;8.02;2.33;;;;;;;2.99;61.05;101421.38;4480555;31;34628;-82
2022/01/18 13:28:08;;;;;;;7.25;2.30;;;;;;;2.39;63.18;101418.09;4493384;31;34944;-80
2022/01/18 13:30:58;;;;;;;14.48;2.37;;;;;;;2.39;63.42;101431.62;4475589;31;34672;-79
2022/01/18 13:33:56;;;;;;;10.95;2.42;;;;;;;2.43;63.63;101419.34;4489324;31;34306;-81
2022/01/18 13:36:58;;;;;;;10.93;2.53;;;;;;;2.36;64.36;101432.91;4470236;31;34632;-83
2022/01/18 13:39:58;;;;;;;18.62;3.17;;;;;;;2.57;63.41;101439.91;4474076;31;34511;-79
2022/01/18 13:42:53;;;;;;;11.93;3.25;;;;;;;2.37;63.84;101428.31;4481450;31;34368;-81
2022/01/18 13:45:43;;;;;;;7.15;2.42;;;;;;;2.34;64.65;101410.63;4485294;31;34335;-78
2022/01/18 13:48:32;;;;;;;16.37;2.60;;;;;;;2.47;64.13;101423.25;4485982;31;34757;-81
2022/01/18 13:51:19;;;;;;;8.45;2.60;;;;;;;2.38;64.68;101414.56;4482484;31;34918;-84
2022/01/18 13:54:08;;;;;;;12.37;2.97;;;;;;;2.25;65.15;101420.84;4482440;31;35541;-84
2022/01/18 13:56:56;;;;;;;7.60;2.67;;;;;;;2.28;64.97;101414.19;4479826;31;34682;-84
2022/01/18 13:59:43;;;;;;;9.95;2.45;;;;;;;2.24;65.05;101427.28;4491509;31;34492;-83
2022/01/18 14:02:40;;;;;;;10.43;2.22;;;;;;;2.43;64.42;101440.97;4476413;31;35082;-83
2022/01/18 14:05:26;;;;;;;7.85;2.65;;;;;;;2.52;64.46;101453.22;4475094;31;34643;-82
2022/01/18 14:08:13;;;;;;;8.55;2.72;;;;;;;2.51;64.42;101448.88;4477432;31;34073;-80
2022/01/18 14:11:01;;;;;;;12.85;2.97;;;;;;;2.58;64.97;101449.66;4484753;31;34468;-83
2022/01/18 14:13:48;;;;;;;14.70;3.60;;;;;;;2.44;65.10;101459.69;4485593;31;34619;-81
2022/01/18 14:16:37;;;;;;;11.18;2.85;;;;;;;2.81;63.94;101445.62;4474529;31;34702;-83
2022/01/18 14:19:44;;;;;;;13.13;3.28;;;;;;;2.40;64.79;101460.34;4483777;31;35003;-83
2022/01/18 14:22:35;;;;;;;11.05;3.87;;;;;;;2.44;65.37;101446.16;4490922;31;34314;-82
2022/01/18 14:25:27;;;;;;;11.80;2.87;;;;;;;2.53;65.52;101449.47;4473669;31;34932;-83
2022/01/18 14:28:15;;;;;;;10.68;3.00;;;;;;;2.48;65.45;101452.00;4480742;31;36553;-81
2022/01/18 14:31:06;;;;;;;11.18;3.35;;;;;;;2.30;65.60;101436.44;4485692;31;34159;-83
2022/01/18 14:33:53;;;;;;;10.63;3.35;;;;;;;2.32;65.55;101434.34;4479873;31;35663;-80